Terminal Aerodrome Forecast
Issued by NWS

Home | Current Version | Previous Version | Text Only | Print | Product List | Glossary On
Versions: 1 2 3 4 5 6 7 8 9 10 11 12 13 14 15 16
000
FTUS45 KPSR 290200 AAA
TAFIPL
TAF AMD
KIPL 290222Z 2902/2924 VRB05KT P6SM FEW120 SCT250
     FM290400 27010KT P6SM FEW100 SCT250
     FM291200 VRB05KT P6SM FEW250=

USA.gov is the U.S. government's official web portal to all federal, state and local government web resources and services.